Pagrindinis puslapis
METAR-TAF:

METAR-TAF

Oro uostai :

Leeming, Anglija

platuma: 54-18N, ilguma: 001-32W, Aukštis: 40 m

Dabartinis oras

Ataskaita buvo paskelbta 1 valandą ir 18 minutes, ne 18:50 UTC
Vėjas 4 kt iš Vakarų
Temperatūra -2°C
Drėgmė 86%
Slėgis 995 hPa
Matomumas 10 km arba daugiau

METAR: EGXE 231850Z AUTO 27004KT 9999 NCD M02/M04 Q0995

Laikas: 20:08 (20:08 UTC)


TAF: trūkstamas

Orai ataskaitas ir orų prognozės (METAR, TAF).

turimą stotys yra geltonos ir raudonos taškus žemėlapyje.

Perkelti pele per norėdami pamatyti stoties vardą.

Tada spustelėkite, norėdami matyti oro stebėjimo ir prognozės.

Norėdami pakeisti žemėlapį: spustelėkite ant žalios mygtukų su juodo kryžiaus žemyn,; žalią mygtuką su brūkšneliu, jei norite nutolinti; arba žalių rodyklių gretimoms žemėlapius.


METAR-TAF: